Time;durP1;ratioP1;P1;durP2;ratioP2;P2;SDS_P1;SDS_P2;PMS_P1;PMS_P2;Temp;Humidity;BMP_temperature;BMP_pressure;BME280_temperature;BME280_humidity;BME280_pressure;Samples;Min_cycle;Max_cycle;Signal;HPM_P1;HPM_P2
2022/07/08 00:00:23;;;;;;;4.82;3.55;;;;;;;;;;5094810;28;20048;-74
2022/07/08 00:02:50;;;;;;;6.88;3.63;;;;;;;;;;5094490;28;20106;-74
2022/07/08 00:05:16;;;;;;;4.90;3.83;;;;;;;;;;5093771;28;20059;-74
2022/07/08 00:07:43;;;;;;;4.88;3.38;;;;;;;;;;5094368;28;20479;-74
2022/07/08 00:10:10;;;;;;;5.90;3.63;;;;;;;;;;5094765;28;20479;-74
2022/07/08 00:12:36;;;;;;;3.90;3.42;;;;;;;;;;5094255;28;20177;-74
2022/07/08 00:15:03;;;;;;;4.90;3.40;;;;;;;;;;5094619;28;20113;-74
2022/07/08 00:17:29;;;;;;;3.95;3.00;;;;;;;;;;5094220;28;20496;-74
2022/07/08 00:19:56;;;;;;;6.63;3.38;;;;;;;;;;5094523;28;20044;-75
2022/07/08 00:22:23;;;;;;;4.45;3.13;;;;;;;;;;5094116;28;20097;-75
2022/07/08 00:24:49;;;;;;;4.25;3.10;;;;;;;;;;5094307;28;20044;-75
2022/07/08 00:27:16;;;;;;;4.05;3.17;;;;;;;;;;5094103;28;20097;-75
2022/07/08 00:29:42;;;;;;;4.05;3.20;;;;;;;;;;5094241;28;20093;-75
2022/07/08 00:32:09;;;;;;;4.82;2.78;;;;;;;;;;5094157;28;20048;-75
2022/07/08 00:34:35;;;;;;;4.38;3.10;;;;;;;;;;5094078;28;20048;-75
2022/07/08 00:37:03;;;;;;;4.07;3.42;;;;;;;;;;5093884;28;20408;-75
2022/07/08 00:39:29;;;;;;;4.57;3.22;;;;;;;;;;5093844;28;20047;-74
2022/07/08 00:41:56;;;;;;;4.50;2.92;;;;;;;;;;5090860;28;20063;-74
2022/07/08 00:44:22;;;;;;;3.03;2.80;;;;;;;;;;5090853;28;20044;-75
2022/07/08 00:46:49;;;;;;;3.28;2.90;;;;;;;;;;5093593;28;20055;-75
2022/07/08 00:49:15;;;;;;;3.28;2.83;;;;;;;;;;5093807;28;20044;-75
2022/07/08 00:51:42;;;;;;;4.03;3.00;;;;;;;;;;5093555;28;20552;-75
2022/07/08 00:54:12;;;;;;;5.32;3.25;;;;;;;;;;5093701;28;20044;-75
2022/07/08 00:56:38;;;;;;;5.60;3.05;;;;;;;;;;5093487;28;20117;-75
2022/07/08 00:59:05;;;;;;;5.25;3.33;;;;;;;;;;5093662;28;20121;-75
2022/07/08 01:01:32;;;;;;;3.47;3.00;;;;;;;;;;5093689;28;20052;-75
2022/07/08 01:03:59;;;;;;;5.20;3.10;;;;;;;;;;5093624;28;20127;-74
2022/07/08 01:06:25;;;;;;;3.78;3.45;;;;;;;;;;5093313;28;20388;-75
2022/07/08 01:08:52;;;;;;;3.17;2.72;;;;;;;;;;5093685;28;20048;-74
2022/07/08 01:11:19;;;;;;;5.50;3.08;;;;;;;;;;5093208;28;20052;-75
2022/07/08 01:13:46;;;;;;;3.72;3.20;;;;;;;;;;5093218;28;20069;-75
2022/07/08 01:16:15;;;;;;;4.85;3.35;;;;;;;;;;5093351;28;20089;-75
2022/07/08 01:18:42;;;;;;;4.13;3.08;;;;;;;;;;5093054;28;20059;-75
2022/07/08 01:21:09;;;;;;;2.93;2.73;;;;;;;;;;5093216;28;20052;-75
2022/07/08 01:23:35;;;;;;;4.30;3.00;;;;;;;;;;5093170;28;20048;-75
2022/07/08 01:26:08;;;;;;;4.10;2.83;;;;;;;;;;5093122;28;20052;-75
2022/07/08 01:28:37;;;;;;;3.20;2.90;;;;;;;;;;5092886;28;20048;-75
2022/07/08 01:31:03;;;;;;;3.28;2.97;;;;;;;;;;5092830;28;20044;-75
2022/07/08 01:33:30;;;;;;;3.10;2.67;;;;;;;;;;5092826;28;20056;-75
2022/07/08 01:35:57;;;;;;;3.88;3.45;;;;;;;;;;5093098;28;20048;-75
2022/07/08 01:38:23;;;;;;;4.47;3.22;;;;;;;;;;5092911;28;20044;-75
2022/07/08 01:40:50;;;;;;;3.38;3.10;;;;;;;;;;5091618;28;20449;-75
2022/07/08 01:43:17;;;;;;;3.97;3.00;;;;;;;;;;5091252;28;20499;-75
2022/07/08 01:45:44;;;;;;;4.05;3.40;;;;;;;;;;5092823;28;20043;-73
2022/07/08 01:48:10;;;;;;;3.13;2.83;;;;;;;;;;5092495;28;20105;-73
2022/07/08 01:50:36;;;;;;;3.83;3.08;;;;;;;;;;5091204;28;20094;-73
2022/07/08 01:53:03;;;;;;;2.60;2.40;;;;;;;;;;5092766;28;20060;-73
2022/07/08 01:55:30;;;;;;;4.40;3.30;;;;;;;;;;5092310;28;20093;-77
2022/07/08 01:57:56;;;;;;;3.40;3.10;;;;;;;;;;5092328;28;20052;-77
2022/07/08 02:00:23;;;;;;;3.53;2.95;;;;;;;;;;5092215;28;20450;-76
2022/07/08 02:02:49;;;;;;;2.70;2.50;;;;;;;;;;5092700;28;20040;-75
2022/07/08 02:05:16;;;;;;;3.10;2.80;;;;;;;;;;5091257;28;20044;-75
2022/07/08 02:07:43;;;;;;;3.75;2.92;;;;;;;;;;5091388;28;20454;-75
2022/07/08 02:10:10;;;;;;;4.47;3.93;;;;;;;;;;5092354;28;20450;-75
2022/07/08 02:12:36;;;;;;;5.22;3.28;;;;;;;;;;5092038;28;20040;-75
2022/07/08 02:15:04;;;;;;;5.20;2.85;;;;;;;;;;5092368;28;20052;-75
2022/07/08 02:17:34;;;;;;;3.90;2.83;;;;;;;;;;5091897;28;20082;-75
2022/07/08 02:20:03;;;;;;;5.13;2.90;;;;;;;;;;5092327;28;20265;-75
2022/07/08 02:22:29;;;;;;;3.45;3.10;;;;;;;;;;5092002;28;20446;-76
2022/07/08 02:24:56;;;;;;;3.70;3.00;;;;;;;;;;5091412;28;20044;-76
2022/07/08 02:27:22;;;;;;;5.15;3.33;;;;;;;;;;5091804;28;20093;-76
2022/07/08 02:29:49;;;;;;;3.00;2.70;;;;;;;;;;5092160;28;20462;-75
2022/07/08 02:32:16;;;;;;;3.03;2.72;;;;;;;;;;5091691;28;20093;-75
2022/07/08 02:34:42;;;;;;;3.43;2.90;;;;;;;;;;5090890;28;20044;-75
2022/07/08 02:37:09;;;;;;;3.60;2.60;;;;;;;;;;5092049;28;20285;-75
2022/07/08 02:39:36;;;;;;;4.88;2.55;;;;;;;;;;5091729;28;20767;-76
2022/07/08 02:42:02;;;;;;;3.00;2.42;;;;;;;;;;5091489;28;20074;-76
2022/07/08 02:44:29;;;;;;;3.90;3.10;;;;;;;;;;5091984;28;20052;-76
2022/07/08 02:46:55;;;;;;;4.85;3.20;;;;;;;;;;5091417;28;20052;-75
2022/07/08 02:49:23;;;;;;;3.75;2.63;;;;;;;;;;5090749;28;20354;-75
2022/07/08 02:51:50;;;;;;;3.03;2.80;;;;;;;;;;5091759;28;20044;-75
2022/07/08 02:54:16;;;;;;;4.25;2.65;;;;;;;;;;5091579;28;20592;-75
2022/07/08 02:56:43;;;;;;;3.97;3.22;;;;;;;;;;5091939;28;20052;-75
2022/07/08 02:59:09;;;;;;;4.05;3.15;;;;;;;;;;5091400;28;20125;-75
2022/07/08 03:01:36;;;;;;;3.13;2.78;;;;;;;;;;5091847;28;20051;-75
2022/07/08 03:04:02;;;;;;;2.75;2.55;;;;;;;;;;5091378;28;20052;-75
2022/07/08 03:06:29;;;;;;;4.18;2.88;;;;;;;;;;5091803;28;20071;-75
2022/07/08 03:08:55;;;;;;;4.18;2.90;;;;;;;;;;5091689;28;20430;-75
2022/07/08 03:11:22;;;;;;;2.95;2.75;;;;;;;;;;5091401;28;20060;-75
2022/07/08 03:13:48;;;;;;;2.55;2.35;;;;;;;;;;5091344;28;20055;-75
2022/07/08 03:16:15;;;;;;;4.13;3.08;;;;;;;;;;5091558;28;20089;-75
2022/07/08 03:18:41;;;;;;;3.40;3.10;;;;;;;;;;5093055;28;20056;-75
2022/07/08 03:21:08;;;;;;;3.25;3.00;;;;;;;;;;5094056;28;20559;-74
2022/07/08 03:23:35;;;;;;;4.55;3.28;;;;;;;;;;5095197;28;20443;-74
2022/07/08 03:26:01;;;;;;;7.97;4.30;;;;;;;;;;5095275;28;20196;-74
2022/07/08 03:28:28;;;;;;;3.07;2.83;;;;;;;;;;5095274;28;20515;-74
2022/07/08 03:30:55;;;;;;;;;;;;;;;;;;5094671;28;20442;-74
2022/07/08 03:33:22;;;;;;;5.68;3.53;;;;;;;;;;5095150;28;19961;-74
2022/07/08 03:35:49;;;;;;;3.90;3.30;;;;;;;;;;5095172;28;20561;-75
2022/07/08 03:38:16;;;;;;;4.25;3.33;;;;;;;;;;5095038;28;20040;-75
2022/07/08 03:43:27;;;;;;;5.85;3.70;;;;;;;;;;5094872;28;20082;-75
2022/07/08 03:45:54;;;;;;;4.55;3.25;;;;;;;;;;5095124;28;20067;-75
2022/07/08 03:48:21;;;;;;;4.50;3.53;;;;;;;;;;5094417;28;20054;-74
2022/07/08 03:50:47;;;;;;;4.55;3.58;;;;;;;;;;5095114;28;20117;-74
2022/07/08 03:53:14;;;;;;;3.15;2.90;;;;;;;;;;5094760;28;20056;-74
2022/07/08 03:55:40;;;;;;;3.75;3.40;;;;;;;;;;5094882;28;20457;-74
2022/07/08 03:58:07;;;;;;;4.70;3.00;;;;;;;;;;5094864;28;20052;-74
2022/07/08 04:00:33;;;;;;;5.35;3.25;;;;;;;;;;5094851;28;20052;-74
2022/07/08 04:03:04;;;;;;;3.05;2.85;;;;;;;;;;5094532;28;20047;-74
2022/07/08 04:05:31;;;;;;;4.57;2.85;;;;;;;;;;5094394;28;20553;-74
2022/07/08 04:07:57;;;;;;;3.47;3.17;;;;;;;;;;5093497;28;20078;-74
2022/07/08 04:10:24;;;;;;;4.93;3.28;;;;;;;;;;5094651;28;20101;-74
2022/07/08 04:12:50;;;;;;;3.47;3.03;;;;;;;;;;5094594;28;20052;-74
2022/07/08 04:15:17;;;;;;;4.60;3.00;;;;;;;;;;5094326;28;20511;-74
2022/07/08 04:17:44;;;;;;;4.37;3.57;;;;;;;;;;5094306;28;20488;-74
2022/07/08 04:20:10;;;;;;;3.28;2.97;;;;;;;;;;5094276;28;20359;-74
2022/07/08 04:22:37;;;;;;;4.43;3.55;;;;;;;;;;5094025;28;20051;-74
2022/07/08 04:25:04;;;;;;;5.30;3.55;;;;;;;;;;5094139;28;20445;-74
2022/07/08 04:27:30;;;;;;;6.57;4.00;;;;;;;;;;5094120;28;20044;-74
2022/07/08 04:29:57;;;;;;;4.00;3.60;;;;;;;;;;5093627;28;20471;-74
2022/07/08 04:32:23;;;;;;;4.10;3.08;;;;;;;;;;5092703;28;20052;-75
2022/07/08 04:34:51;;;;;;;3.80;3.40;;;;;;;;;;5093924;28;20044;-75
2022/07/08 04:37:18;;;;;;;5.70;3.38;;;;;;;;;;5094193;28;20096;-75
2022/07/08 04:39:45;;;;;;;4.32;3.22;;;;;;;;;;5093834;28;20097;-75
2022/07/08 04:42:11;;;;;;;3.17;2.88;;;;;;;;;;5094149;28;20097;-74
2022/07/08 04:44:38;;;;;;;5.70;3.03;;;;;;;;;;5093719;28;20101;-74
2022/07/08 04:47:04;;;;;;;4.25;2.85;;;;;;;;;;5094195;28;20093;-74
2022/07/08 04:49:31;;;;;;;5.13;3.33;;;;;;;;;;5093461;28;20105;-74
2022/07/08 04:51:57;;;;;;;4.85;3.40;;;;;;;;;;5093615;28;20192;-74
2022/07/08 04:54:25;;;;;;;3.95;3.17;;;;;;;;;;5093735;28;20097;-74
2022/07/08 04:56:51;;;;;;;3.10;2.80;;;;;;;;;;5093563;28;20082;-74
2022/07/08 04:59:17;;;;;;;2.83;2.58;;;;;;;;;;5093485;28;20109;-74
2022/07/08 05:01:44;;;;;;;3.72;2.88;;;;;;;;;;5093429;28;20462;-74
2022/07/08 05:04:11;;;;;;;3.88;2.90;;;;;;;;;;5093599;28;20442;-74
2022/07/08 05:06:37;;;;;;;3.63;3.22;;;;;;;;;;5093626;28;20105;-74
2022/07/08 05:09:04;;;;;;;5.63;3.17;;;;;;;;;;5093528;28;20043;-74
2022/07/08 05:11:30;;;;;;;4.80;3.00;;;;;;;;;;5093236;28;20093;-74
2022/07/08 05:13:57;;;;;;;3.70;3.03;;;;;;;;;;5093277;28;20061;-74
2022/07/08 05:16:23;;;;;;;3.55;3.00;;;;;;;;;;5093244;28;20568;-74
2022/07/08 05:18:50;;;;;;;4.63;3.22;;;;;;;;;;5093270;28;20511;-74
2022/07/08 05:21:16;;;;;;;4.28;3.63;;;;;;;;;;5093360;28;20465;-74
2022/07/08 05:23:43;;;;;;;4.00;3.58;;;;;;;;;;5093094;28;20101;-74
2022/07/08 05:26:09;;;;;;;3.75;3.08;;;;;;;;;;5093201;28;20089;-74
2022/07/08 05:28:36;;;;;;;8.32;3.60;;;;;;;;;;5093012;28;20044;-74
2022/07/08 05:31:02;;;;;;;6.90;4.00;;;;;;;;;;5091529;28;20461;-74
2022/07/08 05:33:29;;;;;;;7.80;3.70;;;;;;;;;;5092738;28;20411;-74
2022/07/08 05:35:55;;;;;;;5.15;3.67;;;;;;;;;;5093117;28;20052;-74
2022/07/08 05:38:22;;;;;;;5.22;4.07;;;;;;;;;;5092975;28;20052;-74
2022/07/08 05:40:48;;;;;;;9.15;4.32;;;;;;;;;;5093015;28;20052;-74
2022/07/08 05:43:15;;;;;;;5.13;3.50;;;;;;;;;;5090546;28;20451;-75
2022/07/08 05:45:41;;;;;;;4.47;3.47;;;;;;;;;;5092861;28;20044;-74
2022/07/08 05:48:08;;;;;;;6.85;3.78;;;;;;;;;;5092403;28;20056;-71
2022/07/08 05:50:35;;;;;;;4.85;3.25;;;;;;;;;;5092737;28;20055;-72
2022/07/08 05:53:01;;;;;;;7.10;3.65;;;;;;;;;;5092496;28;20169;-74
2022/07/08 05:55:28;;;;;;;6.25;4.03;;;;;;;;;;5092448;28;20442;-74
2022/07/08 05:57:54;;;;;;;5.53;3.78;;;;;;;;;;5092668;28;20541;-76
2022/07/08 06:00:21;;;;;;;3.80;3.40;;;;;;;;;;5092262;28;20044;-74
2022/07/08 06:02:49;;;;;;;4.68;2.95;;;;;;;;;;5092610;28;20381;-74
2022/07/08 06:05:15;;;;;;;3.40;2.53;;;;;;;;;;5092485;28;20043;-74
2022/07/08 06:07:42;;;;;;;4.47;2.22;;;;;;;;;;5092177;28;20043;-74
2022/07/08 06:10:09;;;;;;;3.15;2.75;;;;;;;;;;5092260;28;20048;-74
2022/07/08 06:12:35;;;;;;;1.90;1.77;;;;;;;;;;5092057;28;20093;-74
2022/07/08 06:15:02;;;;;;;2.30;1.98;;;;;;;;;;5092266;28;20093;-73
2022/07/08 06:17:28;;;;;;;2.30;1.90;;;;;;;;;;5090680;28;20040;-73
2022/07/08 06:19:55;;;;;;;2.35;1.95;;;;;;;;;;5090692;28;20105;-73
2022/07/08 06:22:21;;;;;;;1.90;1.80;;;;;;;;;;5091877;28;20052;-73
2022/07/08 06:24:48;;;;;;;1.60;1.45;;;;;;;;;;5091689;28;20093;-74
2022/07/08 06:27:15;;;;;;;2.35;1.70;;;;;;;;;;5090578;28;20144;-74
2022/07/08 06:29:41;;;;;;;3.17;1.60;;;;;;;;;;5090723;28;20044;-74
2022/07/08 06:32:08;;;;;;;1.83;1.40;;;;;;;;;;5091600;28;20044;-75
2022/07/08 06:34:34;;;;;;;1.38;1.27;;;;;;;;;;5091623;28;20491;-75
2022/07/08 06:37:02;;;;;;;2.78;1.60;;;;;;;;;;5090607;28;20048;-75
2022/07/08 06:39:28;;;;;;;1.33;1.10;;;;;;;;;;5091643;28;20044;-74
2022/07/08 06:41:55;;;;;;;1.88;1.50;;;;;;;;;;5091422;28;20048;-75
2022/07/08 06:44:21;;;;;;;1.43;1.00;;;;;;;;;;5091828;28;20059;-75
2022/07/08 06:46:48;;;;;;;2.35;1.38;;;;;;;;;;5091657;28;20040;-75
2022/07/08 06:49:14;;;;;;;2.75;1.48;;;;;;;;;;5090948;28;20056;-75
2022/07/08 06:51:41;;;;;;;1.33;1.23;;;;;;;;;;5091479;28;20086;-74
2022/07/08 06:56:52;;;;;;;2.40;1.10;;;;;;;;;;5095570;28;20044;-75
2022/07/08 06:59:18;;;;;;;1.27;0.98;;;;;;;;;;5095403;28;20487;-75
2022/07/08 07:01:45;;;;;;;0.80;0.80;;;;;;;;;;5095560;28;20117;-75
2022/07/08 07:04:11;;;;;;;0.68;0.65;;;;;;;;;;5095803;28;20452;-75
2022/07/08 07:06:38;;;;;;;0.90;0.70;;;;;;;;;;5095599;28;20044;-75
2022/07/08 07:09:05;;;;;;;1.80;0.90;;;;;;;;;;5095193;28;20105;-72
2022/07/08 07:11:32;;;;;;;0.90;0.90;;;;;;;;;;5095628;28;20285;-75
2022/07/08 07:13:58;;;;;;;1.58;0.80;;;;;;;;;;5093989;28;20101;-74
2022/07/08 07:16:25;;;;;;;0.80;0.80;;;;;;;;;;5094935;28;20048;-75
2022/07/08 07:18:52;;;;;;;0.85;0.82;;;;;;;;;;5094715;28;20040;-75
2022/07/08 07:21:18;;;;;;;0.98;0.70;;;;;;;;;;5095315;28;20052;-74
2022/07/08 07:23:45;;;;;;;0.90;0.68;;;;;;;;;;5095526;28;20052;-75
2022/07/08 07:26:11;;;;;;;0.97;0.87;;;;;;;;;;5095337;28;20040;-74
2022/07/08 07:28:38;;;;;;;0.65;0.65;;;;;;;;;;5095439;28;20690;-75
2022/07/08 07:31:04;;;;;;;1.65;0.95;;;;;;;;;;5095218;28;20055;-75
2022/07/08 07:33:31;;;;;;;1.60;0.63;;;;;;;;;;5081185;28;20454;-76
2022/07/08 07:35:57;;;;;;;0.90;0.70;;;;;;;;;;5095199;28;20044;-75
2022/07/08 07:38:24;;;;;;;0.73;0.65;;;;;;;;;;5094993;28;20461;-76
2022/07/08 07:40:50;;;;;;;0.93;0.50;;;;;;;;;;5093553;28;20068;-76
2022/07/08 07:43:17;;;;;;;0.60;0.60;;;;;;;;;;5093855;28;20452;-77
2022/07/08 07:45:44;;;;;;;1.50;0.70;;;;;;;;;;5095290;28;20048;-78
2022/07/08 07:48:10;;;;;;;0.63;0.50;;;;;;;;;;5094572;28;20070;-76
2022/07/08 07:50:38;;;;;;;1.73;0.60;;;;;;;;;;5095082;28;20051;-77
2022/07/08 07:53:05;;;;;;;0.80;0.80;;;;;;;;;;5094746;28;20044;-77
2022/07/08 07:55:31;;;;;;;2.42;0.75;;;;;;;;;;5094791;28;20051;-77
2022/07/08 07:57:58;;;;;;;1.48;0.50;;;;;;;;;;5094809;28;20441;-77
2022/07/08 08:00:25;;;;;;;0.95;0.65;;;;;;;;;;5094973;28;20472;-77
2022/07/08 08:02:55;;;;;;;1.25;0.70;;;;;;;;;;5094725;28;20462;-77
2022/07/08 08:05:22;;;;;;;0.93;0.57;;;;;;;;;;5093377;28;20044;-77
2022/07/08 08:07:49;;;;;;;1.52;0.65;;;;;;;;;;5092921;28;20047;-77
2022/07/08 08:10:15;;;;;;;2.92;0.80;;;;;;;;;;5092084;28;20473;-76
2022/07/08 08:12:42;;;;;;;;;;;;;;;;;;5089261;28;20036;-76
2022/07/08 08:15:08;;;;;;;0.93;0.60;;;;;;;;;;5093644;28;19969;-77
2022/07/08 08:17:38;;;;;;;0.82;0.40;;;;;;;;;;5090246;28;20109;-76
2022/07/08 08:20:06;;;;;;;1.02;0.50;;;;;;;;;;5093916;28;20048;-74
2022/07/08 08:22:32;;;;;;;0.70;0.50;;;;;;;;;;5094268;28;20434;-77
2022/07/08 08:24:59;;;;;;;0.47;0.47;;;;;;;;;;5093723;28;20044;-76
2022/07/08 08:27:25;;;;;;;;;;;;;;;;;;5092083;28;20553;-65
2022/07/08 08:29:52;;;;;;;1.30;0.60;;;;;;;;;;5092238;28;20067;-63
2022/07/08 08:32:18;;;;;;;;;;;;;;;;;;5093932;28;20044;-63
2022/07/08 08:34:46;;;;;;;1.00;0.60;;;;;;;;;;5093345;28;19920;-63
2022/07/08 08:37:13;;;;;;;1.67;0.50;;;;;;;;;;5093675;28;20048;-63
2022/07/08 08:39:40;;;;;;;1.13;0.40;;;;;;;;;;5093233;28;20078;-63
2022/07/08 08:42:07;;;;;;;1.45;0.55;;;;;;;;;;5093608;28;20073;-63
2022/07/08 08:44:34;;;;;;;1.60;0.68;;;;;;;;;;5093483;28;20105;-63
2022/07/08 08:47:00;;;;;;;;;;;;;;;;;;5093399;28;20518;-64
2022/07/08 08:49:29;;;;;;;0.52;0.40;;;;;;;;;;5093130;28;19924;-64
2022/07/08 08:51:57;;;;;;;0.55;0.40;;;;;;;;;;5093514;28;20056;-64
2022/07/08 08:54:24;;;;;;;1.23;0.57;;;;;;;;;;5093345;28;20059;-64
2022/07/08 08:56:51;;;;;;;1.65;0.70;;;;;;;;;;5093293;28;20052;-64
2022/07/08 08:59:24;;;;;;;1.13;0.68;;;;;;;;;;5091581;28;20093;-64
2022/07/08 09:01:51;;;;;;;0.50;0.40;;;;;;;;;;5081026;28;20109;-64
2022/07/08 09:04:18;;;;;;;1.65;0.50;;;;;;;;;;5092738;28;20613;-64
2022/07/08 09:06:45;;;;;;;0.98;0.43;;;;;;;;;;5079530;28;20059;-64
2022/07/08 09:09:11;;;;;;;0.77;0.50;;;;;;;;;;5093094;28;20048;-64
2022/07/08 09:11:39;;;;;;;1.52;0.50;;;;;;;;;;5092970;28;20043;-64
2022/07/08 09:14:15;;;;;;;1.20;0.60;;;;;;;;;;5092650;28;20052;-64
2022/07/08 09:17:00;;;;;;;0.98;0.60;;;;;;;;;;5092433;28;20109;-64
2022/07/08 09:19:27;;;;;;;0.52;0.40;;;;;;;;;;5092179;28;20127;-63
2022/07/08 09:21:53;;;;;;;1.85;0.52;;;;;;;;;;5092784;28;20052;-63
2022/07/08 09:24:20;;;;;;;1.00;0.70;;;;;;;;;;5091260;28;20048;-63
2022/07/08 09:26:47;;;;;;;1.15;0.30;;;;;;;;;;5090895;28;20044;-64
2022/07/08 09:29:13;;;;;;;0.52;0.40;;;;;;;;;;5092729;28;20097;-63
2022/07/08 09:31:40;;;;;;;0.57;0.40;;;;;;;;;;5092533;28;20425;-63
2022/07/08 09:34:09;;;;;;;0.32;0.32;;;;;;;;;;5092289;28;20063;-63
2022/07/08 09:36:49;;;;;;;1.38;0.60;;;;;;;;;;5092529;28;20048;-64
2022/07/08 09:39:23;;;;;;;1.17;0.47;;;;;;;;;;5091155;28;20442;-63
2022/07/08 09:41:49;;;;;;;1.63;0.45;;;;;;;;;;5092128;28;20043;-63
2022/07/08 09:44:19;;;;;;;1.52;0.50;;;;;;;;;;5092329;28;20044;-63
2022/07/08 09:46:46;;;;;;;0.52;0.50;;;;;;;;;;5091785;28;20086;-63
2022/07/08 09:49:26;;;;;;;0.73;0.30;;;;;;;;;;5091279;28;20059;-63
2022/07/08 09:51:52;;;;;;;0.65;0.40;;;;;;;;;;5092271;28;20044;-64
2022/07/08 09:54:20;;;;;;;1.50;0.50;;;;;;;;;;5092205;28;20059;-64
2022/07/08 09:57:16;;;;;;;0.60;0.38;;;;;;;;;;5092003;28;20102;-64
2022/07/08 09:59:42;;;;;;;0.40;0.30;;;;;;;;;;5074730;28;20109;-63
2022/07/08 10:02:09;;;;;;;1.27;0.30;;;;;;;;;;5091676;28;20051;-64
2022/07/08 10:04:36;;;;;;;0.75;0.32;;;;;;;;;;5091397;28;20048;-64
2022/07/08 10:07:03;;;;;;;0.38;0.32;;;;;;;;;;5086574;28;20585;-64
2022/07/08 10:09:29;;;;;;;0.40;0.40;;;;;;;;;;5091938;28;20055;-64
2022/07/08 10:11:56;;;;;;;0.40;0.40;;;;;;;;;;5091883;28;20437;-64
2022/07/08 10:14:22;;;;;;;0.52;0.40;;;;;;;;;;5091502;28;20389;-64
2022/07/08 10:16:49;;;;;;;1.83;0.68;;;;;;;;;;5091533;28;20059;-64
2022/07/08 10:19:21;;;;;;;0.32;0.30;;;;;;;;;;5091697;28;20048;-64
2022/07/08 10:21:50;;;;;;;1.17;0.35;;;;;;;;;;5091766;28;20048;-64
2022/07/08 10:24:20;;;;;;;0.47;0.30;;;;;;;;;;5091256;28;20164;-64
2022/07/08 10:26:47;;;;;;;0.55;0.40;;;;;;;;;;5088286;28;20454;-64
2022/07/08 10:29:14;;;;;;;3.55;0.57;;;;;;;;;;5090677;28;20101;-64
2022/07/08 10:31:42;;;;;;;0.47;0.30;;;;;;;;;;5091428;28;20040;-64
2022/07/08 10:34:10;;;;;;;1.90;0.30;;;;;;;;;;5091549;28;20051;-64
2022/07/08 10:37:02;;;;;;;1.02;0.30;;;;;;;;;;5091047;28;20051;-64
2022/07/08 10:39:31;;;;;;;0.30;0.30;;;;;;;;;;5085486;28;20048;-64
2022/07/08 10:42:04;;;;;;;1.45;0.47;;;;;;;;;;5091443;28;20458;-65
2022/07/08 10:44:43;;;;;;;0.68;0.30;;;;;;;;;;5091461;28;20081;-65
2022/07/08 10:47:10;;;;;;;1.75;0.57;;;;;;;;;;5091241;28;20121;-65
2022/07/08 10:49:41;;;;;;;1.67;0.40;;;;;;;;;;5090978;28;20143;-65
2022/07/08 10:52:07;;;;;;;1.50;0.40;;;;;;;;;;5091127;28;20529;-65
2022/07/08 10:54:37;;;;;;;0.80;0.40;;;;;;;;;;5090879;28;20748;-77
2022/07/08 10:57:07;;;;;;;0.50;0.30;;;;;;;;;;5089287;28;20105;-77
2022/07/08 10:59:37;;;;;;;2.10;1.08;;;;;;;;;;5088513;28;20059;-77
2022/07/08 11:02:14;;;;;;;0.88;0.43;;;;;;;;;;5089169;28;20056;-77
2022/07/08 11:04:41;;;;;;;0.43;0.40;;;;;;;;;;5091412;28;20094;-77
2022/07/08 11:07:32;;;;;;;0.68;0.20;;;;;;;;;;5090580;28;20048;-77
2022/07/08 11:09:58;;;;;;;1.75;0.30;;;;;;;;;;5091613;28;20446;-77
2022/07/08 11:12:26;;;;;;;1.80;0.30;;;;;;;;;;5091457;28;20438;-77
2022/07/08 11:14:54;;;;;;;0.50;0.30;;;;;;;;;;5091643;28;20044;-77
2022/07/08 11:17:21;;;;;;;0.45;0.45;;;;;;;;;;5092020;28;20055;-77
2022/07/08 11:19:48;;;;;;;0.38;0.30;;;;;;;;;;5091459;28;20454;-77
2022/07/08 11:22:15;;;;;;;0.60;0.60;;;;;;;;;;5091575;28;20052;-77
2022/07/08 11:24:52;;;;;;;0.43;0.40;;;;;;;;;;5090442;28;20041;-77
2022/07/08 11:27:26;;;;;;;1.20;0.40;;;;;;;;;;5091305;28;20079;-77
2022/07/08 11:29:54;;;;;;;0.45;0.30;;;;;;;;;;5091206;28;20105;-77
2022/07/08 11:32:22;;;;;;;0.63;0.30;;;;;;;;;;5091484;28;20134;-77
2022/07/08 11:34:49;;;;;;;1.35;0.30;;;;;;;;;;5091248;28;20064;-77
2022/07/08 11:37:16;;;;;;;2.10;0.40;;;;;;;;;;5091628;28;20082;-77
2022/07/08 11:39:42;;;;;;;1.15;0.30;;;;;;;;;;5092668;28;20052;-77
2022/07/08 11:42:14;;;;;;;0.50;0.50;;;;;;;;;;5095300;28;20075;-77
2022/07/08 11:44:41;;;;;;;0.20;0.20;;;;;;;;;;5094841;28;20131;-77
2022/07/08 11:47:10;;;;;;;1.67;0.20;;;;;;;;;;5095275;28;20040;-76
2022/07/08 11:49:40;;;;;;;0.57;0.30;;;;;;;;;;5094712;28;20562;-77
2022/07/08 11:52:07;;;;;;;0.95;0.20;;;;;;;;;;5095097;28;20116;-76
2022/07/08 11:54:33;;;;;;;0.75;0.20;;;;;;;;;;5094749;28;20127;-76
2022/07/08 11:57:01;;;;;;;1.38;0.30;;;;;;;;;;5094929;28;20044;-77
2022/07/08 11:59:28;;;;;;;1.25;0.30;;;;;;;;;;5094200;28;20495;-77
2022/07/08 12:01:56;;;;;;;1.00;0.30;;;;;;;;;;5094827;28;20056;-77
2022/07/08 12:04:23;;;;;;;0.68;0.20;;;;;;;;;;5094865;28;20384;-77
2022/07/08 12:06:50;;;;;;;0.40;0.40;;;;;;;;;;5094469;28;20074;-77
2022/07/08 12:09:18;;;;;;;1.30;0.50;;;;;;;;;;5094153;28;20553;-77
2022/07/08 12:11:45;;;;;;;0.40;0.40;;;;;;;;;;5094778;28;20048;-77
2022/07/08 12:14:12;;;;;;;0.80;0.38;;;;;;;;;;5094645;28;20044;-77
2022/07/08 12:16:42;;;;;;;0.45;0.20;;;;;;;;;;5094347;28;20549;-77
2022/07/08 12:19:24;;;;;;;0.30;0.20;;;;;;;;;;5094123;28;20040;-77
2022/07/08 12:21:51;;;;;;;0.60;0.43;;;;;;;;;;5094287;28;20052;-77
2022/07/08 12:24:22;;;;;;;0.40;0.40;;;;;;;;;;5094364;28;20082;-77
2022/07/08 12:26:56;;;;;;;1.05;0.50;;;;;;;;;;5094307;28;20471;-77
2022/07/08 12:29:23;;;;;;;0.32;0.32;;;;;;;;;;5094323;28;20093;-77
2022/07/08 12:31:49;;;;;;;1.55;0.38;;;;;;;;;;5094307;28;20040;-76
2022/07/08 12:34:20;;;;;;;0.45;0.38;;;;;;;;;;5094240;28;20051;-77
2022/07/08 12:36:47;;;;;;;0.93;0.40;;;;;;;;;;5094307;28;20040;-77
2022/07/08 12:39:15;;;;;;;0.50;0.40;;;;;;;;;;5094145;28;20109;-77
2022/07/08 12:41:43;;;;;;;0.63;0.28;;;;;;;;;;5094098;28;20048;-77
2022/07/08 12:44:29;;;;;;;1.13;0.43;;;;;;;;;;5093896;28;20048;-77
2022/07/08 12:46:56;;;;;;;0.57;0.40;;;;;;;;;;5094006;28;20160;-77
2022/07/08 12:49:23;;;;;;;0.40;0.40;;;;;;;;;;5093649;28;20131;-77
2022/07/08 12:51:50;;;;;;;0.60;0.60;;;;;;;;;;5093100;28;20488;-77
2022/07/08 12:54:17;;;;;;;1.77;1.67;;;;;;;;;;5093954;28;20097;-77
2022/07/08 12:56:44;;;;;;;1.63;0.90;;;;;;;;;;5092668;28;20047;-77
2022/07/08 12:59:10;;;;;;;0.73;0.43;;;;;;;;;;5085940;28;20048;-77
2022/07/08 13:01:37;;;;;;;0.68;0.68;;;;;;;;;;5085966;28;20051;-77
2022/07/08 13:04:04;;;;;;;1.85;0.50;;;;;;;;;;5092436;28;20048;-77
2022/07/08 13:06:30;;;;;;;1.83;0.40;;;;;;;;;;5093535;28;20073;-77
2022/07/08 13:08:57;;;;;;;0.80;0.50;;;;;;;;;;5093475;28;20044;-77
2022/07/08 13:11:23;;;;;;;0.63;0.47;;;;;;;;;;5093299;28;20480;-77
2022/07/08 13:13:50;;;;;;;1.02;0.50;;;;;;;;;;5093017;28;20044;-77
2022/07/08 13:16:16;;;;;;;0.55;0.40;;;;;;;;;;5093451;28;20105;-77
2022/07/08 13:18:43;;;;;;;0.52;0.47;;;;;;;;;;5092884;28;20499;-77
2022/07/08 13:21:10;;;;;;;0.77;0.50;;;;;;;;;;5093137;28;20127;-77
2022/07/08 13:23:36;;;;;;;0.63;0.40;;;;;;;;;;5093445;28;20052;-77
2022/07/08 13:26:03;;;;;;;0.50;0.40;;;;;;;;;;5093429;28;20044;-77
2022/07/08 13:28:31;;;;;;;0.60;0.32;;;;;;;;;;5093342;28;20501;-77
2022/07/08 13:30:58;;;;;;;2.25;0.40;;;;;;;;;;5092887;28;20544;-77
2022/07/08 13:33:25;;;;;;;0.60;0.43;;;;;;;;;;5092994;28;20048;-77
2022/07/08 13:35:53;;;;;;;4.68;1.50;;;;;;;;;;5093038;28;20564;-77
2022/07/08 13:38:20;;;;;;;2.00;1.20;;;;;;;;;;5093012;28;20121;-77
2022/07/08 13:40:46;;;;;;;1.30;0.55;;;;;;;;;;5093013;28;20124;-77
2022/07/08 13:43:13;;;;;;;1.00;0.60;;;;;;;;;;5092943;28;20101;-77
2022/07/08 13:45:39;;;;;;;0.93;0.40;;;;;;;;;;5092136;28;20105;-76
2022/07/08 13:48:06;;;;;;;0.57;0.40;;;;;;;;;;5076332;28;20060;-67
2022/07/08 13:50:33;;;;;;;1.33;0.40;;;;;;;;;;5092355;28;20144;-67
2022/07/08 13:52:59;;;;;;;0.50;0.40;;;;;;;;;;5092445;28;20476;-68
2022/07/08 13:55:26;;;;;;;0.68;0.40;;;;;;;;;;5091577;28;20132;-68
2022/07/08 13:57:52;;;;;;;0.57;0.50;;;;;;;;;;5092281;28;20160;-69
2022/07/08 14:00:19;;;;;;;0.73;0.50;;;;;;;;;;5092091;28;20373;-69
2022/07/08 14:02:45;;;;;;;1.38;0.68;;;;;;;;;;5091517;28;20538;-69
2022/07/08 14:05:12;;;;;;;0.73;0.40;;;;;;;;;;5091656;28;20051;-68
2022/07/08 14:07:39;;;;;;;0.65;0.52;;;;;;;;;;5091748;28;20093;-67
2022/07/08 14:10:06;;;;;;;1.00;0.63;;;;;;;;;;5091119;28;20048;-67
2022/07/08 14:12:32;;;;;;;0.32;0.32;;;;;;;;;;5091911;28;20094;-68
2022/07/08 14:15:01;;;;;;;1.42;0.50;;;;;;;;;;5087696;28;20048;-68
2022/07/08 14:17:28;;;;;;;1.55;0.30;;;;;;;;;;5092334;28;20040;-68
2022/07/08 14:19:55;;;;;;;0.85;0.30;;;;;;;;;;5090429;28;20549;-68
2022/07/08 14:22:21;;;;;;;0.55;0.40;;;;;;;;;;5091692;28;20597;-69
2022/07/08 14:24:48;;;;;;;1.02;0.30;;;;;;;;;;5091908;28;20070;-69
2022/07/08 14:27:14;;;;;;;1.85;0.50;;;;;;;;;;5091926;28;20495;-69
2022/07/08 14:29:41;;;;;;;0.85;0.50;;;;;;;;;;5092043;28;20044;-70
2022/07/08 14:32:07;;;;;;;1.08;0.30;;;;;;;;;;5091773;28;20089;-68
2022/07/08 14:34:34;;;;;;;0.50;0.47;;;;;;;;;;5091365;28;20047;-68
2022/07/08 14:37:01;;;;;;;1.95;0.40;;;;;;;;;;5091800;28;20093;-67
2022/07/08 14:39:27;;;;;;;0.55;0.55;;;;;;;;;;5091543;28;20055;-67
2022/07/08 14:41:54;;;;;;;2.85;0.60;;;;;;;;;;5091382;28;20097;-78
2022/07/08 14:44:20;;;;;;;0.77;0.68;;;;;;;;;;5090918;28;20052;-77
2022/07/08 14:46:47;;;;;;;0.88;0.63;;;;;;;;;;5090688;28;20043;-77
2022/07/08 14:49:14;;;;;;;1.38;0.60;;;;;;;;;;5091650;28;20056;-77
2022/07/08 14:51:40;;;;;;;0.90;0.65;;;;;;;;;;5091949;28;20167;-77